createdAt,value
2016-07-24T00:02:59.525Z,16.9
2016-07-24T00:06:12.962Z,16.9
2016-07-24T00:09:26.380Z,16.8
2016-07-24T00:12:40.106Z,16.8
2016-07-24T00:15:54.102Z,16.8
2016-07-24T00:19:07.907Z,16.8
2016-07-24T00:22:21.835Z,16.8
2016-07-24T00:25:35.478Z,16.7
2016-07-24T00:28:54.165Z,16.7
2016-07-24T00:31:56.128Z,16.7
2016-07-24T00:35:11.668Z,16.7
2016-07-24T00:38:25.118Z,16.6
2016-07-24T00:41:38.739Z,16.7
2016-07-24T00:44:52.415Z,16.6
2016-07-24T00:48:04.028Z,16.6
2016-07-24T00:51:19.769Z,16.6
2016-07-24T00:54:33.471Z,16.5
2016-07-24T00:57:51.813Z,16.5
2016-07-24T01:00:53.789Z,16.5
2016-07-24T01:04:09.505Z,16.5
2016-07-24T01:07:22.639Z,16.5
2016-07-24T01:10:36.160Z,16.5
2016-07-24T01:13:54.855Z,16.5
2016-07-24T01:16:58.985Z,16.5
2016-07-24T01:20:12.607Z,16.4
2016-07-24T01:23:26.320Z,16.4
2016-07-24T01:26:39.989Z,16.3
2016-07-24T01:29:53.612Z,16.3
2016-07-24T01:33:05.579Z,16.4
2016-07-24T01:36:21.128Z,16.3
2016-07-24T01:39:34.824Z,16.3
2016-07-24T01:42:53.502Z,16.4
2016-07-24T01:45:58.790Z,16.3
2016-07-24T01:49:11.141Z,16.3
2016-07-24T01:52:24.932Z,16.3
2016-07-24T01:55:38.782Z,16.3
2016-07-24T01:58:52.595Z,16.3
2016-07-24T02:02:06.420Z,16.3
2016-07-24T02:05:20.023Z,16.3
2016-07-24T02:08:34.006Z,16.2
2016-07-24T02:11:52.933Z,16.1
2016-07-24T02:14:56.915Z,16.1
2016-07-24T02:18:10.713Z,16.1
2016-07-24T02:21:24.837Z,16.2
2016-07-24T02:24:38.057Z,16.2
2016-07-24T02:27:56.762Z,16.1
2016-07-24T02:31:00.773Z,16.1
2016-07-24T02:34:14.511Z,16.1
2016-07-24T02:37:28.080Z,16
2016-07-24T02:40:41.830Z,16
2016-07-24T02:43:55.371Z,16
2016-07-24T02:47:09.198Z,15.9
2016-07-24T02:50:22.665Z,15.8
2016-07-24T02:53:36.398Z,15.8
2016-07-24T02:56:55.150Z,15.8
2016-07-24T02:59:59.106Z,15.8
2016-07-24T03:03:12.798Z,15.7
2016-07-24T03:06:26.143Z,15.7
2016-07-24T03:09:39.466Z,15.6
2016-07-24T03:12:52.657Z,15.6
2016-07-24T03:16:06.230Z,15.6
2016-07-24T03:19:20.021Z,15.6
2016-07-24T03:22:33.396Z,15.6
2016-07-24T03:25:52.151Z,15.5
2016-07-24T03:28:56.234Z,15.5
2016-07-24T03:32:10.033Z,15.5
2016-07-24T03:35:23.876Z,15.6
2016-07-24T03:38:37.760Z,15.5
2016-07-24T03:41:56.342Z,15.5
2016-07-24T03:45:00.388Z,15.5
2016-07-24T03:48:14.075Z,15.5
2016-07-24T03:51:27.967Z,15.6
2016-07-24T03:54:41.801Z,15.5
2016-07-24T03:57:55.610Z,15.5
2016-07-24T04:01:09.516Z,15.5
2016-07-24T04:04:23.018Z,15.4
2016-07-24T04:07:36.783Z,15.5
2016-07-24T04:10:55.619Z,15.5
2016-07-24T04:13:59.540Z,15.6
2016-07-24T04:17:13.274Z,15.6
2016-07-24T04:20:27.101Z,15.6
2016-07-24T04:23:40.758Z,15.6
2016-07-24T04:26:54.488Z,15.6
2016-07-24T04:30:08.035Z,15.6
2016-07-24T04:33:22.048Z,15.6
2016-07-24T04:36:35.816Z,15.6
2016-07-24T04:39:54.420Z,15.6
2016-07-24T04:42:58.348Z,15.7
2016-07-24T04:46:12.207Z,15.7
2016-07-24T04:49:24.073Z,15.7
2016-07-24T04:52:37.776Z,15.6
2016-07-24T04:55:53.158Z,15.7
2016-07-24T04:59:06.868Z,15.8
2016-07-24T05:02:20.205Z,15.8
2016-07-24T05:05:33.369Z,15.9
2016-07-24T05:08:51.007Z,16
2016-07-24T05:11:55.004Z,16
2016-07-24T05:15:08.561Z,16.2
2016-07-24T05:18:21.964Z,16.4
2016-07-24T05:21:35.483Z,16.6
2016-07-24T05:24:54.127Z,16.8
2016-07-24T05:27:58.344Z,16.9
2016-07-24T05:31:11.740Z,17
2016-07-24T05:34:25.348Z,17.3
2016-07-24T05:37:38.976Z,17.5
2016-07-24T05:40:52.847Z,17.7
2016-07-24T05:44:06.573Z,17.8
2016-07-24T05:47:20.026Z,17.9
2016-07-24T05:50:33.639Z,18.1
2016-07-24T05:53:51.765Z,18.3
2016-07-24T05:56:55.923Z,18.5
2016-07-24T06:00:09.772Z,18.6
2016-07-24T06:03:23.822Z,18.8
2016-07-24T06:06:37.392Z,18.9
2016-07-24T06:09:55.886Z,19.2
2016-07-24T06:13:00.406Z,19.2
2016-07-24T06:16:14.136Z,19.4
2016-07-24T06:19:28.296Z,19.7
2016-07-24T06:22:42.098Z,19.9
2016-07-24T06:25:56.269Z,20.2
2016-07-24T06:29:09.899Z,20.5
2016-07-24T06:32:23.912Z,20.7
2016-07-24T06:35:37.735Z,20.9
2016-07-24T06:38:56.586Z,21
2016-07-24T06:42:01.134Z,21.2
2016-07-24T06:45:14.939Z,21.4
2016-07-24T06:48:28.560Z,21.8
2016-07-24T06:51:47.520Z,22
2016-07-24T06:54:57.117Z,22.2
2016-07-24T06:58:01.606Z,21.9
2016-07-24T07:01:16.089Z,22.2
2016-07-24T07:04:30.134Z,22.8
2016-07-24T07:07:49.581Z,23.5
2016-07-24T07:10:54.438Z,23.9
2016-07-24T07:14:08.990Z,23.9
2016-07-24T07:17:23.282Z,24.3
2016-07-24T07:20:37.551Z,24.5
2016-07-24T07:23:56.440Z,25.1
2016-07-24T07:27:01.616Z,25.3
2016-07-24T07:30:15.997Z,25.3
2016-07-24T07:33:30.200Z,24.9
2016-07-24T07:36:49.374Z,24.7
2016-07-24T07:39:54.299Z,25
2016-07-24T07:43:08.807Z,25.4
2016-07-24T07:46:23.127Z,25.6
2016-07-24T07:49:37.094Z,25.6
2016-07-24T07:52:56.224Z,25.8
2016-07-24T07:56:01.203Z,25.9
2016-07-24T07:59:15.472Z,26
2016-07-24T08:02:34.171Z,26.2
2016-07-24T08:05:49.687Z,26.6
2016-07-24T08:08:54.903Z,27.1
2016-07-24T08:12:09.662Z,27.4
2016-07-24T08:15:24.019Z,27.5
2016-07-24T08:18:38.718Z,27.7
2016-07-24T08:21:53.243Z,27.8
2016-07-24T08:25:07.731Z,27.6
2016-07-24T08:28:22.783Z,28
2016-07-24T08:31:37.596Z,28.2
2016-07-24T08:34:57.307Z,28.5
2016-07-24T08:38:02.678Z,28.5
2016-07-24T08:41:17.570Z,28.7
2016-07-24T08:44:32.506Z,28.9
2016-07-24T08:47:51.862Z,28.9
2016-07-24T08:50:57.160Z,28.9
2016-07-24T08:54:11.594Z,28.6
2016-07-24T08:57:26.171Z,28.3
2016-07-24T09:00:40.645Z,27.5
2016-07-24T09:03:55.062Z,27.1
2016-07-24T09:07:09.312Z,26.8
2016-07-24T09:10:24.002Z,26.9
2016-07-24T09:13:38.471Z,27.1
2016-07-24T09:16:52.743Z,27
2016-07-24T09:20:06.929Z,26.7
2016-07-24T09:23:21.602Z,26.6
2016-07-24T09:26:36.167Z,26.7
2016-07-24T09:29:55.546Z,26.5
2016-07-24T09:33:00.644Z,26.6
2016-07-24T09:36:14.565Z,26.4
2016-07-24T09:39:29.331Z,26
2016-07-24T09:42:48.559Z,25.3
2016-07-24T09:45:51.596Z,24.9
2016-07-24T09:49:07.803Z,24.5
2016-07-24T09:52:22.027Z,24.2
2016-07-24T09:55:35.803Z,23.9
2016-07-24T09:58:55.110Z,23.9
2016-07-24T10:02:00.278Z,24.1
2016-07-24T10:05:14.843Z,24.3
2016-07-24T10:08:29.530Z,24.6
2016-07-24T10:11:48.938Z,24.8
2016-07-24T10:14:53.913Z,24.8
2016-07-24T10:18:08.430Z,24.3
2016-07-24T10:21:22.595Z,24.4
2016-07-24T10:24:36.881Z,24.4
2016-07-24T10:27:55.847Z,24.3
2016-07-24T10:31:00.716Z,24.2
2016-07-24T10:34:14.207Z,24
2016-07-24T10:37:28.744Z,24
2016-07-24T10:40:48.051Z,24
2016-07-24T10:43:53.072Z,24
2016-07-24T10:47:07.542Z,23.9
2016-07-24T10:50:21.468Z,23.7
2016-07-24T10:53:35.831Z,23.8
2016-07-24T10:56:55.090Z,23.9
2016-07-24T11:00:00.142Z,24
2016-07-24T11:03:14.193Z,23.9
2016-07-24T11:06:28.533Z,23.9
2016-07-24T11:09:47.786Z,24
2016-07-24T11:12:52.830Z,24
2016-07-24T11:16:07.295Z,24
2016-07-24T11:19:21.339Z,23.9
2016-07-24T11:22:35.592Z,23.9
2016-07-24T11:25:54.578Z,23.8
2016-07-24T11:28:59.552Z,23.7
2016-07-24T11:32:13.836Z,23.6
2016-07-24T11:35:27.942Z,23.6
2016-07-24T11:38:42.120Z,23.6
2016-07-24T11:41:56.192Z,23.4
2016-07-24T11:45:10.232Z,23.4
2016-07-24T11:48:24.290Z,23.2
2016-07-24T11:51:37.935Z,23.3
2016-07-24T11:54:57.245Z,23.1
2016-07-24T11:58:01.950Z,23
2016-07-24T12:01:16.041Z,22.9
2016-07-24T12:04:30.088Z,22.7
2016-07-24T12:07:48.689Z,22.7
2016-07-24T12:10:53.436Z,22.8
2016-07-24T12:14:06.897Z,22.7
2016-07-24T12:17:21.027Z,22.7
2016-07-24T12:20:35.087Z,22.7
2016-07-24T12:23:53.921Z,22.7
2016-07-24T12:26:58.710Z,22.8
2016-07-24T12:30:12.679Z,22.8
2016-07-24T12:33:26.701Z,22.8
2016-07-24T12:36:40.726Z,22.8
2016-07-24T12:39:54.530Z,22.8
2016-07-24T12:43:08.706Z,22.8
2016-07-24T12:46:22.824Z,22.8
2016-07-24T12:49:37.010Z,22.7
2016-07-24T12:52:55.737Z,22.6
2016-07-24T12:56:00.472Z,22.6
2016-07-24T12:59:14.071Z,22.6
2016-07-24T13:02:28.383Z,22.7
2016-07-24T13:05:42.581Z,22.8
2016-07-24T13:08:56.772Z,22.9
2016-07-24T13:12:08.932Z,22.9
2016-07-24T13:15:25.124Z,22.9
2016-07-24T13:18:39.473Z,23
2016-07-24T13:21:53.786Z,23
2016-07-24T13:25:07.316Z,23.1
2016-07-24T13:28:20.957Z,23.1
2016-07-24T13:31:34.338Z,23.1
2016-07-24T13:34:53.154Z,23
2016-07-24T13:37:58.080Z,23
2016-07-24T13:41:12.060Z,23
2016-07-24T13:44:25.923Z,22.9
2016-07-24T13:47:39.734Z,22.9
2016-07-24T13:50:53.997Z,23
2016-07-24T13:54:12.438Z,23.1
2016-07-24T13:57:22.385Z,23
2016-07-24T14:00:34.682Z,23
2016-07-24T14:03:55.716Z,23
2016-07-24T14:07:00.628Z,23
2016-07-24T14:10:14.671Z,22.9
2016-07-24T14:13:28.550Z,23
2016-07-24T14:16:47.692Z,23
2016-07-24T14:19:52.727Z,23.1
2016-07-24T14:23:06.782Z,23.1
2016-07-24T14:26:20.967Z,23.2
2016-07-24T14:29:35.138Z,23.2
2016-07-24T14:32:54.218Z,23.3
2016-07-24T14:35:59.072Z,23.3
2016-07-24T14:39:13.699Z,23.3
2016-07-24T14:42:26.468Z,23.3
2016-07-24T14:45:40.822Z,23.3
2016-07-24T14:48:55.116Z,23.4
2016-07-24T14:52:09.551Z,23.4
2016-07-24T14:55:23.918Z,23.4
2016-07-24T14:58:38.401Z,23.6
2016-07-24T15:01:50.740Z,23.6
2016-07-24T15:05:07.307Z,23.6
2016-07-24T15:08:21.403Z,23.6
2016-07-24T15:11:35.423Z,23.6
2016-07-24T15:14:54.837Z,23.6
2016-07-24T15:17:59.635Z,23.6
2016-07-24T15:21:13.862Z,23.5
2016-07-24T15:24:28.231Z,23.4
2016-07-24T15:27:42.325Z,23.4
2016-07-24T15:30:56.587Z,23.3
2016-07-24T15:34:10.692Z,23.2
2016-07-24T15:37:24.371Z,23.2
2016-07-24T15:40:38.850Z,23.2
2016-07-24T15:43:57.449Z,23.2
2016-07-24T15:47:02.349Z,23.2
2016-07-24T15:50:16.919Z,23.3
2016-07-24T15:53:31.120Z,23.3
2016-07-24T15:56:49.841Z,23.4
2016-07-24T15:59:54.621Z,23.4
2016-07-24T16:03:09.015Z,23.3
2016-07-24T16:06:23.220Z,23.4
2016-07-24T16:09:35.275Z,23.4
2016-07-24T16:12:56.838Z,23.3
2016-07-24T16:16:01.790Z,23.3
2016-07-24T16:19:15.733Z,23.3
2016-07-24T16:22:30.048Z,23.3
2016-07-24T16:25:49.566Z,23.3
2016-07-24T16:28:54.393Z,23.3
2016-07-24T16:32:08.814Z,23.3
2016-07-24T16:35:22.639Z,23.3
2016-07-24T16:38:37.078Z,23.3
2016-07-24T16:41:56.139Z,23.3
2016-07-24T16:45:00.957Z,23.3
2016-07-24T16:48:14.722Z,23.3
2016-07-24T16:51:28.649Z,23.3
2016-07-24T16:54:42.583Z,23.3
2016-07-24T16:57:56.589Z,23.3
2016-07-24T17:01:10.936Z,23.3
2016-07-24T17:04:25.041Z,23.3
2016-07-24T17:07:38.992Z,23.3
2016-07-24T17:10:53.133Z,23.3
2016-07-24T17:14:07.590Z,23.3
2016-07-24T17:17:22.224Z,23.3
2016-07-24T17:20:36.218Z,23.3
2016-07-24T17:23:55.086Z,23.3
2016-07-24T17:27:00.000Z,23.2
2016-07-24T17:30:13.836Z,23.2
2016-07-24T17:33:28.128Z,23.1
2016-07-24T17:36:42.493Z,23.1
2016-07-24T17:39:56.570Z,23.1
2016-07-24T17:43:10.815Z,23
2016-07-24T17:46:24.866Z,23
2016-07-24T17:49:39.061Z,23
2016-07-24T17:52:57.648Z,23
2016-07-24T17:56:02.434Z,22.9
2016-07-24T17:59:16.754Z,22.9
2016-07-24T18:02:30.846Z,22.9
2016-07-24T18:05:50.069Z,22.8
2016-07-24T18:08:54.984Z,22.8
2016-07-24T18:12:09.338Z,22.7
2016-07-24T18:15:23.449Z,22.6
2016-07-24T18:18:38.060Z,22.6
2016-07-24T18:21:57.755Z,22.5
2016-07-24T18:25:02.530Z,22.5
2016-07-24T18:28:16.942Z,22.4
2016-07-24T18:31:29.270Z,22.3
2016-07-24T18:34:50.654Z,22.3
2016-07-24T18:37:55.503Z,22.2
2016-07-24T18:41:07.367Z,22.2
2016-07-24T18:44:21.599Z,22.1
2016-07-24T18:47:36.171Z,22.1
2016-07-24T18:50:55.176Z,22
2016-07-24T18:54:00.046Z,22
2016-07-24T18:57:14.301Z,22
2016-07-24T19:00:26.000Z,21.9
2016-07-24T19:03:41.541Z,21.8
2016-07-24T19:06:55.491Z,21.8
2016-07-24T19:10:09.569Z,21.7
2016-07-24T19:13:23.582Z,21.6
2016-07-24T19:16:35.571Z,21.6
2016-07-24T19:19:56.857Z,21.5
2016-07-24T19:23:01.625Z,21.4
2016-07-24T19:26:15.731Z,21.4
2016-07-24T19:29:29.878Z,21.3
2016-07-24T19:32:49.121Z,21.2
2016-07-24T19:35:53.709Z,21.2
2016-07-24T19:39:07.870Z,21.1
2016-07-24T19:42:21.797Z,21
2016-07-24T19:45:35.754Z,21
2016-07-24T19:48:54.207Z,20.9
2016-07-24T19:51:58.926Z,20.9
2016-07-24T19:55:12.364Z,20.8
2016-07-24T19:58:26.439Z,20.8
2016-07-24T20:01:38.580Z,20.7
2016-07-24T20:04:57.683Z,20.7
2016-07-24T20:08:02.335Z,20.6
2016-07-24T20:11:15.927Z,20.6
2016-07-24T20:14:29.802Z,20.6
2016-07-24T20:17:48.823Z,20.5
2016-07-24T20:20:53.455Z,20.4
2016-07-24T20:24:07.146Z,20.4
2016-07-24T20:27:21.104Z,20.4
2016-07-24T20:30:34.991Z,20.3
2016-07-24T20:36:58.423Z,20.2
2016-07-24T20:40:12.594Z,20.2
2016-07-24T20:43:26.323Z,20.1
2016-07-24T20:46:39.739Z,20
2016-07-24T20:49:53.874Z,20
2016-07-24T20:53:07.087Z,20
2016-07-24T20:56:20.969Z,19.9
2016-07-24T20:59:34.221Z,19.9
2016-07-24T21:02:52.938Z,19.8
2016-07-24T21:05:57.438Z,19.8
2016-07-24T21:09:11.798Z,19.7
2016-07-24T21:12:25.956Z,19.7
2016-07-24T21:15:39.619Z,19.6
2016-07-24T21:18:53.271Z,19.6
2016-07-24T21:22:07.737Z,19.6
2016-07-24T21:25:20.615Z,19.5
2016-07-24T21:28:35.052Z,19.5
2016-07-24T21:31:53.813Z,19.4
2016-07-24T21:34:58.347Z,19.4
2016-07-24T21:38:12.339Z,19.4
2016-07-24T21:41:26.695Z,19.3
2016-07-24T21:44:40.704Z,19.3
2016-07-24T21:47:54.534Z,19.2
2016-07-24T21:51:08.379Z,19.2
2016-07-24T21:54:19.198Z,19.2
2016-07-24T21:57:34.903Z,19.1
2016-07-24T22:00:53.572Z,19.1
2016-07-24T22:03:58.025Z,19.1
2016-07-24T22:07:11.451Z,19
2016-07-24T22:10:25.205Z,19
2016-07-24T22:13:39.066Z,18.9
2016-07-24T22:16:53.057Z,18.9
2016-07-24T22:20:06.858Z,18.9
2016-07-24T22:23:20.508Z,18.8
2016-07-24T22:26:34.257Z,18.8
2016-07-24T22:29:53.165Z,18.8
2016-07-24T22:32:57.720Z,18.7
2016-07-24T22:36:11.749Z,18.7
2016-07-24T22:39:25.202Z,18.7
2016-07-24T22:42:39.232Z,18.7
2016-07-24T22:45:57.920Z,18.6
2016-07-24T22:49:02.304Z,18.6
2016-07-24T22:52:16.326Z,18.5
2016-07-24T22:55:29.792Z,18.5
2016-07-24T22:58:48.636Z,18.5
2016-07-24T23:01:53.188Z,18.5
2016-07-24T23:05:07.330Z,18.5
2016-07-24T23:08:21.418Z,18.4
2016-07-24T23:11:35.369Z,18.4
2016-07-24T23:14:54.518Z,18.4
2016-07-24T23:17:59.033Z,18.3
2016-07-24T23:21:13.270Z,18.3
2016-07-24T23:24:27.153Z,18.3
2016-07-24T23:27:41.338Z,18.2
2016-07-24T23:30:55.426Z,18.2
2016-07-24T23:34:09.578Z,18.2
2016-07-24T23:37:23.670Z,18.2
2016-07-24T23:40:37.881Z,18.2
2016-07-24T23:43:57.052Z,18.1
2016-07-24T23:47:01.529Z,18.1
2016-07-24T23:50:12.066Z,18.1
2016-07-24T23:53:26.289Z,18
2016-07-24T23:56:40.263Z,18
2016-07-24T23:59:54.298Z,18
